sensor_id;sensor_type;location;lat;lon;timestamp;pressure;altitude;pressure_sealevel;temperature;humidity
18985;BME280;9626;52.552;13.436;2022-11-20T00:01:08;100546.53;;;-0.79;100.00
18985;BME280;9626;52.552;13.436;2022-11-20T00:03:35;100545.69;;;-0.80;100.00
18985;BME280;9626;52.552;13.436;2022-11-20T00:06:05;100550.81;;;-0.83;100.00
18985;BME280;9626;52.552;13.436;2022-11-20T00:08:31;100546.44;;;-0.84;100.00
18985;BME280;9626;52.552;13.436;2022-11-20T00:11:12;100547.34;;;-0.82;100.00
18985;BME280;9626;52.552;13.436;2022-11-20T00:13:38;100542.16;;;-0.82;100.00
18985;BME280;9626;52.552;13.436;2022-11-20T00:16:06;100547.34;;;-0.82;100.00
18985;BME280;9626;52.552;13.436;2022-11-20T00:18:33;100545.50;;;-0.86;100.00
18985;BME280;9626;52.552;13.436;2022-11-20T00:21:04;100542.09;;;-0.85;100.00
18985;BME280;9626;52.552;13.436;2022-11-20T00:23:30;100536.94;;;-0.82;100.00
18985;BME280;9626;52.552;13.436;2022-11-20T00:26:01;100543.84;;;-0.84;100.00
18985;BME280;9626;52.552;13.436;2022-11-20T00:28:28;100545.63;;;-0.83;100.00
18985;BME280;9626;52.552;13.436;2022-11-20T00:31:04;100537.88;;;-0.80;100.00
18985;BME280;9626;52.552;13.436;2022-11-20T00:33:30;100545.59;;;-0.84;100.00
18985;BME280;9626;52.552;13.436;2022-11-20T00:36:03;100548.06;;;-0.88;100.00
18985;BME280;9626;52.552;13.436;2022-11-20T00:38:31;100541.09;;;-0.90;100.00
18985;BME280;9626;52.552;13.436;2022-11-20T00:40:58;100546.19;;;-0.95;100.00
18985;BME280;9626;52.552;13.436;2022-11-20T00:43:25;100553.19;;;-0.92;100.00
18985;BME280;9626;52.552;13.436;2022-11-20T00:45:56;100544.53;;;-0.91;100.00
18985;BME280;9626;52.552;13.436;2022-11-20T00:48:22;100540.25;;;-0.89;100.00
18985;BME280;9626;52.552;13.436;2022-11-20T00:50:48;100545.50;;;-0.86;100.00
18985;BME280;9626;52.552;13.436;2022-11-20T00:53:14;100546.44;;;-0.84;100.00
18985;BME280;9626;52.552;13.436;2022-11-20T00:55:40;100540.28;;;-0.88;100.00
18985;BME280;9626;52.552;13.436;2022-11-20T00:58:06;100538.66;;;-0.84;100.00
18985;BME280;9626;52.552;13.436;2022-11-20T01:00:32;100543.00;;;-0.83;100.00
18985;BME280;9626;52.552;13.436;2022-11-20T01:02:58;100539.63;;;-0.80;100.00
18985;BME280;9626;52.552;13.436;2022-11-20T01:05:24;100543.19;;;-0.75;100.00
18985;BME280;9626;52.552;13.436;2022-11-20T01:07:50;100550.94;;;-0.77;100.00
18985;BME280;9626;52.552;13.436;2022-11-20T01:10:16;100544.84;;;-0.79;100.00
18985;BME280;9626;52.552;13.436;2022-11-20T01:12:43;100543.16;;;-0.77;100.00
18985;BME280;9626;52.552;13.436;2022-11-20T01:15:09;100537.03;;;-0.79;100.00
18985;BME280;9626;52.552;13.436;2022-11-20T01:17:35;100537.84;;;-0.81;100.00
18985;BME280;9626;52.552;13.436;2022-11-20T01:20:01;100542.03;;;-0.87;100.00
18985;BME280;9626;52.552;13.436;2022-11-20T01:22:27;100539.50;;;-0.83;100.00
18985;BME280;9626;52.552;13.436;2022-11-20T01:24:53;100539.53;;;-0.82;100.00
18985;BME280;9626;52.552;13.436;2022-11-20T01:27:19;100535.34;;;-0.77;100.00
18985;BME280;9626;52.552;13.436;2022-11-20T01:29:44;100542.34;;;-0.74;100.00
18985;BME280;9626;52.552;13.436;2022-11-20T01:32:10;100526.78;;;-0.73;100.00
18985;BME280;9626;52.552;13.436;2022-11-20T01:34:36;100533.72;;;-0.73;100.00
18985;BME280;9626;52.552;13.436;2022-11-20T01:37:02;100530.16;;;-0.77;100.00
18985;BME280;9626;52.552;13.436;2022-11-20T01:39:28;100528.47;;;-0.75;100.00
18985;BME280;9626;52.552;13.436;2022-11-20T01:41:55;100523.28;;;-0.75;100.00
18985;BME280;9626;52.552;13.436;2022-11-20T01:44:50;100526.72;;;-0.76;100.00
18985;BME280;9626;52.552;13.436;2022-11-20T01:47:35;100523.28;;;-0.75;100.00
18985;BME280;9626;52.552;13.436;2022-11-20T01:50:09;100521.47;;;-0.77;100.00
18985;BME280;9626;52.552;13.436;2022-11-20T01:52:43;100524.69;;;-0.88;100.00
18985;BME280;9626;52.552;13.436;2022-11-20T01:55:21;100526.47;;;-0.85;100.00
18985;BME280;9626;52.552;13.436;2022-11-20T01:57:48;100517.97;;;-0.78;100.00
18985;BME280;9626;52.552;13.436;2022-11-20T02:00:17;100517.91;;;-0.81;100.00
18985;BME280;9626;52.552;13.436;2022-11-20T02:02:51;100521.22;;;-0.88;100.00
18985;BME280;9626;52.552;13.436;2022-11-20T02:05:35;100522.19;;;-0.84;100.00
18985;BME280;9626;52.552;13.436;2022-11-20T02:08:04;100511.84;;;-0.81;100.00
18985;BME280;9626;52.552;13.436;2022-11-20T02:10:31;100516.25;;;-0.79;100.00
18985;BME280;9626;52.552;13.436;2022-11-20T02:12:58;100512.78;;;-0.78;100.00
18985;BME280;9626;52.552;13.436;2022-11-20T02:15:43;100505.84;;;-0.79;100.00
18985;BME280;9626;52.552;13.436;2022-11-20T02:18:11;100503.16;;;-0.82;100.00
18985;BME280;9626;52.552;13.436;2022-11-20T02:20:44;100508.41;;;-0.80;100.00
18985;BME280;9626;52.552;13.436;2022-11-20T02:23:13;100509.34;;;-0.77;100.00
18985;BME280;9626;52.552;13.436;2022-11-20T02:25:41;100501.53;;;-0.77;100.00
18985;BME280;9626;52.552;13.436;2022-11-20T02:28:08;100497.84;;;-0.87;100.00
18985;BME280;9626;52.552;13.436;2022-11-20T02:30:35;100499.66;;;-0.84;100.00
18985;BME280;9626;52.552;13.436;2022-11-20T02:33:01;100500.53;;;-0.82;100.00
18985;BME280;9626;52.552;13.436;2022-11-20T02:37:55;100502.94;;;-0.91;100.00
18985;BME280;9626;52.552;13.436;2022-11-20T02:40:21;100501.16;;;-0.94;100.00
18985;BME280;9626;52.552;13.436;2022-11-20T02:42:51;100503.63;;;-0.98;100.00
18985;BME280;9626;52.552;13.436;2022-11-20T02:45:17;100501.94;;;-0.96;100.00
18985;BME280;9626;52.552;13.436;2022-11-20T02:47:43;100505.44;;;-0.94;100.00
18985;BME280;9626;52.552;13.436;2022-11-20T02:50:09;100503.72;;;-0.95;100.00
18985;BME280;9626;52.552;13.436;2022-11-20T02:52:36;100502.81;;;-0.96;100.00
18985;BME280;9626;52.552;13.436;2022-11-20T02:55:02;100502.97;;;-0.90;100.00
18985;BME280;9626;52.552;13.436;2022-11-20T02:57:28;100501.22;;;-0.91;100.00
18985;BME280;9626;52.552;13.436;2022-11-20T02:59:54;100502.00;;;-0.95;100.00
18985;BME280;9626;52.552;13.436;2022-11-20T03:02:20;100503.88;;;-0.88;100.00
18985;BME280;9626;52.552;13.436;2022-11-20T03:04:46;100503.81;;;-0.91;100.00
18985;BME280;9626;52.552;13.436;2022-11-20T03:07:12;100496.97;;;-0.87;100.00
18985;BME280;9626;52.552;13.436;2022-11-20T03:09:38;100498.66;;;-0.89;100.00
18985;BME280;9626;52.552;13.436;2022-11-20T03:12:04;100495.28;;;-0.85;100.00
18985;BME280;9626;52.552;13.436;2022-11-20T03:14:30;100492.72;;;-0.83;100.00
18985;BME280;9626;52.552;13.436;2022-11-20T03:16:57;100482.31;;;-0.83;100.00
18985;BME280;9626;52.552;13.436;2022-11-20T03:19:23;100487.47;;;-0.85;100.00
18985;BME280;9626;52.552;13.436;2022-11-20T03:21:49;100477.88;;;-0.88;100.00
18985;BME280;9626;52.552;13.436;2022-11-20T03:24:15;100482.28;;;-0.85;100.00
18985;BME280;9626;52.552;13.436;2022-11-20T03:26:41;100481.44;;;-0.84;100.00
18985;BME280;9626;52.552;13.436;2022-11-20T03:29:07;100480.56;;;-0.84;100.00
18985;BME280;9626;52.552;13.436;2022-11-20T03:31:52;100474.41;;;-0.88;100.00
18985;BME280;9626;52.552;13.436;2022-11-20T03:34:18;100478.81;;;-0.86;100.00
18985;BME280;9626;52.552;13.436;2022-11-20T03:36:44;100477.97;;;-0.84;100.00
18985;BME280;9626;52.552;13.436;2022-11-20T03:39:10;100480.50;;;-0.86;100.00
18985;BME280;9626;52.552;13.436;2022-11-20T03:41:38;100477.91;;;-0.86;100.00
18985;BME280;9626;52.552;13.436;2022-11-20T03:44:06;100476.09;;;-0.90;100.00
18985;BME280;9626;52.552;13.436;2022-11-20T03:46:33;100471.75;;;-0.91;100.00
18985;BME280;9626;52.552;13.436;2022-11-20T03:48:59;100473.59;;;-0.87;100.00
18985;BME280;9626;52.552;13.436;2022-11-20T03:51:27;100471.03;;;-0.84;100.00
18985;BME280;9626;52.552;13.436;2022-11-20T03:53:55;100466.69;;;-0.85;100.00
18985;BME280;9626;52.552;13.436;2022-11-20T03:56:24;100468.25;;;-0.92;100.00
18985;BME280;9626;52.552;13.436;2022-11-20T03:58:50;100468.22;;;-0.93;100.00
18985;BME280;9626;52.552;13.436;2022-11-20T04:01:18;100461.34;;;-0.91;100.00
18985;BME280;9626;52.552;13.436;2022-11-20T04:03:45;100471.66;;;-0.94;100.00
18985;BME280;9626;52.552;13.436;2022-11-20T04:06:18;100473.38;;;-0.95;100.00
18985;BME280;9626;52.552;13.436;2022-11-20T04:08:45;100467.38;;;-0.92;100.00
18985;BME280;9626;52.552;13.436;2022-11-20T04:11:16;100464.81;;;-0.91;100.00
18985;BME280;9626;52.552;13.436;2022-11-20T04:13:46;100458.63;;;-0.96;100.00
18985;BME280;9626;52.552;13.436;2022-11-20T04:16:13;100459.47;;;-0.97;100.00
18985;BME280;9626;52.552;13.436;2022-11-20T04:18:39;100463.94;;;-0.91;100.00
18985;BME280;9626;52.552;13.436;2022-11-20T04:21:06;100470.88;;;-0.90;100.00
18985;BME280;9626;52.552;13.436;2022-11-20T04:23:32;100463.78;;;-0.97;100.00
18985;BME280;9626;52.552;13.436;2022-11-20T04:26:07;100466.41;;;-0.97;100.00
18985;BME280;9626;52.552;13.436;2022-11-20T04:28:34;100470.72;;;-0.98;100.00
18985;BME280;9626;52.552;13.436;2022-11-20T04:31:11;100465.63;;;-0.93;100.00
18985;BME280;9626;52.552;13.436;2022-11-20T04:33:38;100465.63;;;-0.93;100.00
18985;BME280;9626;52.552;13.436;2022-11-20T04:36:06;100464.66;;;-0.97;100.00
18985;BME280;9626;52.552;13.436;2022-11-20T04:38:32;100465.56;;;-0.96;100.00
18985;BME280;9626;52.552;13.436;2022-11-20T04:41:03;100470.78;;;-0.95;100.00
18985;BME280;9626;52.552;13.436;2022-11-20T04:43:29;100467.31;;;-0.95;100.00
18985;BME280;9626;52.552;13.436;2022-11-20T04:45:57;100464.63;;;-0.98;100.00
18985;BME280;9626;52.552;13.436;2022-11-20T04:48:24;100462.81;;;-1.03;100.00
18985;BME280;9626;52.552;13.436;2022-11-20T04:50:51;100458.50;;;-1.02;100.00
18985;BME280;9626;52.552;13.436;2022-11-20T04:53:18;100454.19;;;-1.00;100.00
18985;BME280;9626;52.552;13.436;2022-11-20T04:55:45;100458.38;;;-1.07;100.00
18985;BME280;9626;52.552;13.436;2022-11-20T04:58:12;100461.91;;;-1.05;100.00
18985;BME280;9626;52.552;13.436;2022-11-20T05:00:38;100448.09;;;-1.02;100.00
18985;BME280;9626;52.552;13.436;2022-11-20T05:03:04;100450.72;;;-1.00;100.00
18985;BME280;9626;52.552;13.436;2022-11-20T05:05:31;100449.91;;;-0.99;100.00
18985;BME280;9626;52.552;13.436;2022-11-20T05:07:58;100445.38;;;-1.07;100.00
18985;BME280;9626;52.552;13.436;2022-11-20T05:10:25;100442.91;;;-1.02;100.00
18985;BME280;9626;52.552;13.436;2022-11-20T05:12:51;100434.97;;;-1.07;100.00
18985;BME280;9626;52.552;13.436;2022-11-20T05:15:17;100439.44;;;-1.01;100.00
18985;BME280;9626;52.552;13.436;2022-11-20T05:17:48;100426.44;;;-1.01;100.00
18985;BME280;9626;52.552;13.436;2022-11-20T05:20:14;100427.28;;;-1.04;100.00
18985;BME280;9626;52.552;13.436;2022-11-20T05:22:40;100433.31;;;-1.05;100.00
18985;BME280;9626;52.552;13.436;2022-11-20T05:25:07;100428.19;;;-1.02;100.00
18985;BME280;9626;52.552;13.436;2022-11-20T05:27:32;100427.41;;;-0.97;100.00
18985;BME280;9626;52.552;13.436;2022-11-20T05:29:58;100424.81;;;-0.97;100.00
18985;BME280;9626;52.552;13.436;2022-11-20T05:32:24;100432.53;;;-1.00;100.00
18985;BME280;9626;52.552;13.436;2022-11-20T05:34:52;100429.09;;;-0.99;100.00
18985;BME280;9626;52.552;13.436;2022-11-20T05:37:18;100425.63;;;-0.98;100.00
18985;BME280;9626;52.552;13.436;2022-11-20T05:39:44;100427.41;;;-0.97;100.00
18985;BME280;9626;52.552;13.436;2022-11-20T05:42:10;100423.81;;;-1.03;100.00
18985;BME280;9626;52.552;13.436;2022-11-20T05:44:55;100422.22;;;-0.96;100.00
18985;BME280;9626;52.552;13.436;2022-11-20T05:47:20;100423.84;;;-1.01;100.00
18985;BME280;9626;52.552;13.436;2022-11-20T05:49:47;100420.31;;;-1.05;100.00
18985;BME280;9626;52.552;13.436;2022-11-20T05:52:13;100419.59;;;-0.97;100.00
18985;BME280;9626;52.552;13.436;2022-11-20T05:54:39;100417.81;;;-1.00;100.00
18985;BME280;9626;52.552;13.436;2022-11-20T05:57:05;100413.53;;;-0.98;100.00
18985;BME280;9626;52.552;13.436;2022-11-20T05:59:30;100411.97;;;-0.91;100.00
18985;BME280;9626;52.552;13.436;2022-11-20T06:01:56;100410.25;;;-0.89;100.00
18985;BME280;9626;52.552;13.436;2022-11-20T06:04:22;100417.22;;;-0.88;100.00
18985;BME280;9626;52.552;13.436;2022-11-20T06:06:49;100413.00;;;-0.83;100.00
18985;BME280;9626;52.552;13.436;2022-11-20T06:09:15;100411.28;;;-0.82;100.00
18985;BME280;9626;52.552;13.436;2022-11-20T06:11:41;100410.38;;;-0.84;100.00
18985;BME280;9626;52.552;13.436;2022-11-20T06:14:07;100409.41;;;-0.88;100.00
18985;BME280;9626;52.552;13.436;2022-11-20T06:16:33;100406.81;;;-0.88;100.00
18985;BME280;9626;52.552;13.436;2022-11-20T06:18:59;100410.31;;;-0.86;100.00
18985;BME280;9626;52.552;13.436;2022-11-20T06:21:25;100411.19;;;-0.87;100.00
18985;BME280;9626;52.552;13.436;2022-11-20T06:23:52;100410.19;;;-0.92;100.00
18985;BME280;9626;52.552;13.436;2022-11-20T06:26:24;100406.81;;;-0.88;100.00
18985;BME280;9626;52.552;13.436;2022-11-20T06:28:51;100411.28;;;-0.82;100.00
18985;BME280;9626;52.552;13.436;2022-11-20T06:31:20;100411.06;;;-0.92;100.00
18985;BME280;9626;52.552;13.436;2022-11-20T06:33:47;100410.25;;;-0.89;100.00
18985;BME280;9626;52.552;13.436;2022-11-20T06:36:15;100412.97;;;-0.84;100.00
18985;BME280;9626;52.552;13.436;2022-11-20T06:38:41;100419.88;;;-0.85;100.00
18985;BME280;9626;52.552;13.436;2022-11-20T06:41:16;100411.31;;;-0.81;100.00
18985;BME280;9626;52.552;13.436;2022-11-20T06:43:42;100412.91;;;-0.86;100.00
18985;BME280;9626;52.552;13.436;2022-11-20T06:46:13;100409.38;;;-0.90;100.00
18985;BME280;9626;52.552;13.436;2022-11-20T06:48:40;100414.59;;;-0.90;100.00
18985;BME280;9626;52.552;13.436;2022-11-20T06:51:07;100403.28;;;-0.90;100.00
18985;BME280;9626;52.552;13.436;2022-11-20T06:53:34;100405.00;;;-0.92;100.00
18985;BME280;9626;52.552;13.436;2022-11-20T06:56:00;100402.50;;;-0.86;100.00
18985;BME280;9626;52.552;13.436;2022-11-20T06:58:28;100402.69;;;-0.78;100.00
18985;BME280;9626;52.552;13.436;2022-11-20T07:01:09;100407.88;;;-0.80;100.00
18985;BME280;9626;52.552;13.436;2022-11-20T07:03:35;100405.06;;;-0.89;100.00
18985;BME280;9626;52.552;13.436;2022-11-20T07:06:02;100404.94;;;-0.95;100.00
18985;BME280;9626;52.552;13.436;2022-11-20T07:08:29;100399.03;;;-0.88;100.00
18985;BME280;9626;52.552;13.436;2022-11-20T07:11:00;100401.69;;;-0.85;100.00
18985;BME280;9626;52.552;13.436;2022-11-20T07:13:27;100401.41;;;-0.97;100.00
18985;BME280;9626;52.552;13.436;2022-11-20T07:15:54;100405.78;;;-0.96;100.00
18985;BME280;9626;52.552;13.436;2022-11-20T07:18:20;100404.06;;;-0.94;100.00
18985;BME280;9626;52.552;13.436;2022-11-20T07:20:46;100402.25;;;-0.98;100.00
18985;BME280;9626;52.552;13.436;2022-11-20T07:23:13;100403.81;;;-1.05;100.00
18985;BME280;9626;52.552;13.436;2022-11-20T07:25:39;100398.72;;;-1.02;100.00
18985;BME280;9626;52.552;13.436;2022-11-20T07:28:05;100396.97;;;-1.02;100.00
18985;BME280;9626;52.552;13.436;2022-11-20T07:30:31;100403.06;;;-1.01;100.00
18985;BME280;9626;52.552;13.436;2022-11-20T07:32:57;100405.75;;;-0.98;100.00
18985;BME280;9626;52.552;13.436;2022-11-20T07:35:24;100405.84;;;-0.93;100.00
18985;BME280;9626;52.552;13.436;2022-11-20T07:37:50;100406.63;;;-0.96;100.00
18985;BME280;9626;52.552;13.436;2022-11-20T07:40:17;100408.50;;;-0.90;100.00
18985;BME280;9626;52.552;13.436;2022-11-20T07:42:53;100393.00;;;-0.87;100.00
18985;BME280;9626;52.552;13.436;2022-11-20T07:45:21;100405.13;;;-0.86;100.00
18985;BME280;9626;52.552;13.436;2022-11-20T07:47:48;100392.84;;;-0.93;100.00
18985;BME280;9626;52.552;13.436;2022-11-20T07:50:14;100386.81;;;-0.92;100.00
18985;BME280;9626;52.552;13.436;2022-11-20T07:52:40;100392.84;;;-0.93;100.00
18985;BME280;9626;52.552;13.436;2022-11-20T07:55:08;100387.56;;;-0.96;100.00
18985;BME280;9626;52.552;13.436;2022-11-20T07:57:34;100385.81;;;-0.97;100.00
18985;BME280;9626;52.552;13.436;2022-11-20T08:00:00;100388.41;;;-0.97;100.00
18985;BME280;9626;52.552;13.436;2022-11-20T08:02:26;100390.16;;;-0.98;100.00
18985;BME280;9626;52.552;13.436;2022-11-20T08:04:52;100397.03;;;-0.98;100.00
18985;BME280;9626;52.552;13.436;2022-11-20T08:07:18;100394.31;;;-1.05;100.00
18985;BME280;9626;52.552;13.436;2022-11-20T08:09:44;100393.19;;;-1.16;100.00
18985;BME280;9626;52.552;13.436;2022-11-20T08:12:20;100390.28;;;-1.28;100.00
18985;BME280;9626;52.552;13.436;2022-11-20T08:15:06;100379.19;;;-1.23;100.00
18985;BME280;9626;52.552;13.436;2022-11-20T08:17:32;100387.16;;;-1.15;100.00
18985;BME280;9626;52.552;13.436;2022-11-20T08:19:58;100383.47;;;-1.25;100.00
18985;BME280;9626;52.552;13.436;2022-11-20T08:22:24;100385.31;;;-1.19;100.00
18985;BME280;9626;52.552;13.436;2022-11-20T08:24:50;100384.59;;;-1.12;100.00
18985;BME280;9626;52.552;13.436;2022-11-20T08:27:16;100378.66;;;-1.08;100.00
18985;BME280;9626;52.552;13.436;2022-11-20T08:29:42;100381.88;;;-1.18;100.00
18985;BME280;9626;52.552;13.436;2022-11-20T08:32:08;100375.13;;;-1.10;100.00
18985;BME280;9626;52.552;13.436;2022-11-20T08:34:34;100370.88;;;-1.08;100.00
18985;BME280;9626;52.552;13.436;2022-11-20T08:37:01;100372.59;;;-1.07;100.00
18985;BME280;9626;52.552;13.436;2022-11-20T08:39:28;100369.00;;;-1.12;100.00
18985;BME280;9626;52.552;13.436;2022-11-20T08:41:53;100373.47;;;-1.08;100.00
18985;BME280;9626;52.552;13.436;2022-11-20T08:44:20;100371.78;;;-1.04;100.00
18985;BME280;9626;52.552;13.436;2022-11-20T08:46:46;100366.56;;;-1.06;100.00
18985;BME280;9626;52.552;13.436;2022-11-20T08:49:14;100362.47;;;-0.94;100.00
18985;BME280;9626;52.552;13.436;2022-11-20T08:51:41;100364.25;;;-0.93;100.00
18985;BME280;9626;52.552;13.436;2022-11-20T08:54:07;100363.53;;;-0.86;100.00
18985;BME280;9626;52.552;13.436;2022-11-20T08:56:35;100363.66;;;-0.80;100.00
18985;BME280;9626;52.552;13.436;2022-11-20T08:59:01;100364.50;;;-0.81;100.00
18985;BME280;9626;52.552;13.436;2022-11-20T09:01:28;100375.84;;;-0.79;100.00
18985;BME280;9626;52.552;13.436;2022-11-20T09:03:55;100374.94;;;-0.79;100.00
18985;BME280;9626;52.552;13.436;2022-11-20T09:06:22;100374.13;;;-0.77;100.00
18985;BME280;9626;52.552;13.436;2022-11-20T09:08:52;100367.16;;;-0.78;100.00
18985;BME280;9626;52.552;13.436;2022-11-20T09:11:19;100381.09;;;-0.76;100.00
18985;BME280;9626;52.552;13.436;2022-11-20T09:13:45;100380.94;;;-0.82;100.00
18985;BME280;9626;52.552;13.436;2022-11-20T09:16:11;100379.09;;;-0.88;100.00
18985;BME280;9626;52.552;13.436;2022-11-20T09:18:37;100383.31;;;-0.93;100.00
18985;BME280;9626;52.552;13.436;2022-11-20T09:21:06;100389.25;;;-0.98;100.00
18985;BME280;9626;52.552;13.436;2022-11-20T09:23:34;100385.69;;;-1.04;100.00
18985;BME280;9626;52.552;13.436;2022-11-20T09:26:05;100385.91;;;-0.93;100.00
18985;BME280;9626;52.552;13.436;2022-11-20T09:28:32;100386.81;;;-0.92;100.00
18985;BME280;9626;52.552;13.436;2022-11-20T09:30:59;100392.00;;;-0.92;100.00
18985;BME280;9626;52.552;13.436;2022-11-20T09:33:26;100391.28;;;-0.85;100.00
18985;BME280;9626;52.552;13.436;2022-11-20T09:35:52;100377.28;;;-0.90;100.00
18985;BME280;9626;52.552;13.436;2022-11-20T09:38:18;100379.31;;;-0.77;100.00
18985;BME280;9626;52.552;13.436;2022-11-20T09:40:49;100371.41;;;-0.83;100.00
18985;BME280;9626;52.552;13.436;2022-11-20T09:52:01;100368.94;;;-0.75;100.00
18985;BME280;9626;52.552;13.436;2022-11-20T09:54:37;100359.34;;;-0.78;100.00
18985;BME280;9626;52.552;13.436;2022-11-20T09:57:15;100369.06;;;-0.71;100.00
18985;BME280;9626;52.552;13.436;2022-11-20T09:59:45;100356.16;;;-0.66;100.00
18985;BME280;9626;52.552;13.436;2022-11-20T10:02:28;100364.06;;;-0.61;100.00
18985;BME280;9626;52.552;13.436;2022-11-20T10:08:21;100363.16;;;-0.62;100.00
18985;BME280;9626;52.552;13.436;2022-11-20T10:13:39;100360.72;;;-0.54;100.00
18985;BME280;9626;52.552;13.436;2022-11-20T10:26:33;100339.19;;;-0.47;100.00
18985;BME280;9626;52.552;13.436;2022-11-20T10:31:56;100334.66;;;-0.57;100.00
18985;BME280;9626;52.552;13.436;2022-11-20T10:34:35;100334.72;;;-0.54;100.00
18985;BME280;9626;52.552;13.436;2022-11-20T10:37:21;100324.44;;;-0.46;100.00
18985;BME280;9626;52.552;13.436;2022-11-20T10:42:48;100325.28;;;-0.49;100.00
18985;BME280;9626;52.552;13.436;2022-11-20T10:45:31;100328.84;;;-0.44;100.00
18985;BME280;9626;52.552;13.436;2022-11-20T10:48:15;100330.72;;;-0.38;100.00
18985;BME280;9626;52.552;13.436;2022-11-20T10:56:13;100316.16;;;0.22;100.00
18985;BME280;9626;52.552;13.436;2022-11-20T11:01:22;100326.16;;;0.51;100.00
18985;BME280;9626;52.552;13.436;2022-11-20T11:03:50;100328.97;;;0.66;100.00
18985;BME280;9626;52.552;13.436;2022-11-20T11:06:40;100320.25;;;0.63;100.00
18985;BME280;9626;52.552;13.436;2022-11-20T11:09:26;100327.19;;;0.62;100.00
18985;BME280;9626;52.552;13.436;2022-11-20T11:11:57;100321.28;;;0.74;100.00
18985;BME280;9626;52.552;13.436;2022-11-20T11:14:23;100317.38;;;0.46;100.00
18985;BME280;9626;52.552;13.436;2022-11-20T11:16:52;100322.41;;;0.33;100.00
18985;BME280;9626;52.552;13.436;2022-11-20T11:19:18;100317.03;;;0.24;100.00
18985;BME280;9626;52.552;13.436;2022-11-20T11:21:55;100319.53;;;0.16;100.00
18985;BME280;9626;52.552;13.436;2022-11-20T11:24:27;100317.59;;;0.06;100.00
18985;BME280;9626;52.552;13.436;2022-11-20T11:27:11;100321.75;;;-0.07;100.00
18985;BME280;9626;52.552;13.436;2022-11-20T11:29:37;100309.53;;;-0.11;100.00
18985;BME280;9626;52.552;13.436;2022-11-20T11:32:15;100319.94;;;-0.11;100.00
18985;BME280;9626;52.552;13.436;2022-11-20T11:34:41;100312.78;;;-0.21;100.00
18985;BME280;9626;52.552;13.436;2022-11-20T11:37:20;100306.16;;;-0.04;100.00
18985;BME280;9626;52.552;13.436;2022-11-20T11:39:50;100302.00;;;0.08;100.00
18985;BME280;9626;52.552;13.436;2022-11-20T11:42:18;100301.00;;;-0.01;100.00
18985;BME280;9626;52.552;13.436;2022-11-20T11:44:47;100307.06;;;-0.02;100.00
18985;BME280;9626;52.552;13.436;2022-11-20T11:47:36;100301.84;;;-0.02;100.00
18985;BME280;9626;52.552;13.436;2022-11-20T11:52:43;100307.06;;;-0.02;100.00
18985;BME280;9626;52.552;13.436;2022-11-20T11:58:08;100305.03;;;-0.18;100.00
18985;BME280;9626;52.552;13.436;2022-11-20T12:00:36;100293.72;;;-0.20;100.00
18985;BME280;9626;52.552;13.436;2022-11-20T12:03:17;100286.75;;;-0.21;100.00
18985;BME280;9626;52.552;13.436;2022-11-20T12:05:53;100289.31;;;-0.26;100.00
18985;BME280;9626;52.552;13.436;2022-11-20T12:15:55;100298.72;;;-0.32;100.00
18985;BME280;9626;52.552;13.436;2022-11-20T12:18:22;100291.78;;;-0.30;100.00
18985;BME280;9626;52.552;13.436;2022-11-20T12:26:47;100282.31;;;-0.28;100.00
18985;BME280;9626;52.552;13.436;2022-11-20T12:40:41;100270.59;;;-0.03;100.00
18985;BME280;9626;52.552;13.436;2022-11-20T12:43:25;100266.31;;;0.01;100.00
18985;BME280;9626;52.552;13.436;2022-11-20T12:46:18;100259.53;;;0.10;100.00
18985;BME280;9626;52.552;13.436;2022-11-20T12:56:51;100260.50;;;1.49;100.00
18985;BME280;9626;52.552;13.436;2022-11-20T13:02:23;100256.56;;;1.94;100.00
18985;BME280;9626;52.552;13.436;2022-11-20T13:05:14;100255.34;;;1.57;100.00
18985;BME280;9626;52.552;13.436;2022-11-20T13:07:44;100248.47;;;1.65;100.00
18985;BME280;9626;52.552;13.436;2022-11-20T13:10:25;100240.19;;;1.22;100.00
18985;BME280;9626;52.552;13.436;2022-11-20T13:13:00;100238.28;;;1.07;100.00
18985;BME280;9626;52.552;13.436;2022-11-20T13:18:20;100242.16;;;0.69;100.00
18985;BME280;9626;52.552;13.436;2022-11-20T13:20:47;100242.81;;;0.54;100.00
18985;BME280;9626;52.552;13.436;2022-11-20T13:23:24;100240.16;;;0.49;100.00
18985;BME280;9626;52.552;13.436;2022-11-20T13:26:23;100242.81;;;0.54;100.00
18985;BME280;9626;52.552;13.436;2022-11-20T13:29:03;100239.84;;;0.29;100.00
18985;BME280;9626;52.552;13.436;2022-11-20T13:31:35;100229.41;;;0.26;100.00
18985;BME280;9626;52.552;13.436;2022-11-20T13:34:04;100231.97;;;0.25;100.00
18985;BME280;9626;52.552;13.436;2022-11-20T13:36:31;100228.63;;;0.33;100.00
18985;BME280;9626;52.552;13.436;2022-11-20T13:38:59;100225.25;;;0.41;100.00
18985;BME280;9626;52.552;13.436;2022-11-20T13:41:34;100221.91;;;0.49;100.00
18985;BME280;9626;52.552;13.436;2022-11-20T13:44:14;100224.50;;;0.48;100.00
18985;BME280;9626;52.552;13.436;2022-11-20T13:46:49;100222.66;;;0.42;100.00
18985;BME280;9626;52.552;13.436;2022-11-20T13:49:25;100224.38;;;0.39;100.00
18985;BME280;9626;52.552;13.436;2022-11-20T13:57:51;100237.72;;;0.04;100.00
18985;BME280;9626;52.552;13.436;2022-11-20T14:00:21;100242.97;;;0.07;100.00
18985;BME280;9626;52.552;13.436;2022-11-20T14:05:50;100239.53;;;0.09;100.00
18985;BME280;9626;52.552;13.436;2022-11-20T14:08:44;100238.69;;;0.09;100.00
18985;BME280;9626;52.552;13.436;2022-11-20T14:11:20;100240.34;;;0.07;100.00
18985;BME280;9626;52.552;13.436;2022-11-20T14:16:34;100235.94;;;0.01;100.00
18985;BME280;9626;52.552;13.436;2022-11-20T14:24:32;100241.94;;;-0.03;100.00
18985;BME280;9626;52.552;13.436;2022-11-20T14:26:58;100241.97;;;-0.02;100.00
18985;BME280;9626;52.552;13.436;2022-11-20T14:29:33;100247.09;;;-0.08;100.00
18985;BME280;9626;52.552;13.436;2022-11-20T14:32:00;100245.31;;;-0.09;100.00
18985;BME280;9626;52.552;13.436;2022-11-20T14:34:31;100237.56;;;-0.06;100.00